West Pawlet, VT

4:31 PM EST on December 25, 2014 (GMT -0500)
Morse State | Change Station
CLOSE
Current Station
Airport
Location: Bennington,
Elevation: 827 ft
Nearby Weather Stations

Elev 827 ft 42.89 °N, 73.25 °W | Updated 37 minutes ago

Overcast
Overcast
44 °F
Feels Like 37 °F
N
14
Wind Variable Wind from WNW
Gusts 24 mph

Today
High -- | Low -- °F
--% Chance of Precip.
Yesterday
High -- | Low -- °F
Precip. -- in
7:23 AM 4:22 PM
Waxing Crescent, 19% visible
Pressure 29.80 in
Visibility 10.0 miles
Clouds Overcast 3900 ft
Windchill 37 °F
Dew Point 31 °F
Humidity 60%
Rainfall 0.17 in
Snow Depth Not available.
UV 0 out of 12
Pollen .10 out of 12
Air Quality Not available.
Flu Activity Not available.
METAR KDDH 252054Z AUTO 30012G21KT 10SM -RA OVC039 07/M01 A2980 RMK AO2 RAB1959E29B52 SLP090 P0000 60000 T00671006 53046

More Conditions Fewer Conditions

Pressure 29.80 in
Visibility 10.0 miles
Clouds Overcast 3900 ft
Windchill 37 °F
Dew Point 31 °F
Humidity 60%
Rainfall 0.17 in
Snow Depth Not available.
UV 0 out of 12
Pollen .10 out of 12
Air Quality Not available.
Flu Activity Not available.
METAR KDDH 252054Z AUTO 30012G21KT 10SM -RA OVC039 07/M01 A2980 RMK AO2 RAB1959E29B52 SLP090 P0000 60000 T00671006 53046

More Conditions Fewer Conditions

10-Day Weather Forecast

Almanac

Astronomy

Dec. 25, 2014 Rise Set
Actual Time
Civil Twilight
Nautical Twilight
Astronomical Twilight
Moon
Length of Visible Light
Length of Day
Tomorrow will be .
, % of the Moon is Illuminated

Today's Extremes

State Highs State Lows

Community

WunderPhotos

Upload Photos

1,780,402 photos uploaded!

WunderBlogs® & News

Nearby

Air Quality

  Air Quality AQ Index Pollutant
Not available.

Snow Depth

Station Depth Elevation

Earthquake Activity

City Distance Mag. Time & Date
Minimum magnitude displayed is 2.5.

Coastal Water Temperatures

Place Temperature

Nearby Weather Stations